sensor_id;sensor_type;location;lat;lon;timestamp;temperature;humidity
3638;DHT22;1835;50.068;8.154;2023-02-19T00:01:51;10.80;99.90
3638;DHT22;1835;50.068;8.154;2023-02-19T00:04:21;10.80;99.90
3638;DHT22;1835;50.068;8.154;2023-02-19T00:06:49;10.80;99.90
3638;DHT22;1835;50.068;8.154;2023-02-19T00:09:18;10.90;99.90
3638;DHT22;1835;50.068;8.154;2023-02-19T00:11:47;10.90;99.90
3638;DHT22;1835;50.068;8.154;2023-02-19T00:14:18;10.80;99.90
3638;DHT22;1835;50.068;8.154;2023-02-19T00:16:47;10.80;99.90
3638;DHT22;1835;50.068;8.154;2023-02-19T00:19:17;10.90;99.90
3638;DHT22;1835;50.068;8.154;2023-02-19T00:21:50;11.00;99.90
3638;DHT22;1835;50.068;8.154;2023-02-19T00:24:19;10.90;99.90
3638;DHT22;1835;50.068;8.154;2023-02-19T00:26:49;10.90;99.90
3638;DHT22;1835;50.068;8.154;2023-02-19T00:29:19;10.90;99.90
3638;DHT22;1835;50.068;8.154;2023-02-19T00:31:48;11.00;99.90
3638;DHT22;1835;50.068;8.154;2023-02-19T00:34:16;10.80;99.90
3638;DHT22;1835;50.068;8.154;2023-02-19T00:36:44;10.90;99.90
3638;DHT22;1835;50.068;8.154;2023-02-19T00:39:15;10.90;99.90
3638;DHT22;1835;50.068;8.154;2023-02-19T00:41:44;10.90;99.90
3638;DHT22;1835;50.068;8.154;2023-02-19T00:44:12;10.70;99.90
3638;DHT22;1835;50.068;8.154;2023-02-19T00:46:43;10.60;99.90
3638;DHT22;1835;50.068;8.154;2023-02-19T00:49:15;10.80;99.90
3638;DHT22;1835;50.068;8.154;2023-02-19T00:51:45;10.80;99.90
3638;DHT22;1835;50.068;8.154;2023-02-19T00:54:15;10.80;99.90
3638;DHT22;1835;50.068;8.154;2023-02-19T00:56:44;10.70;99.90
3638;DHT22;1835;50.068;8.154;2023-02-19T00:59:12;10.70;99.90
3638;DHT22;1835;50.068;8.154;2023-02-19T01:01:40;10.80;99.90
3638;DHT22;1835;50.068;8.154;2023-02-19T01:04:10;11.00;99.90
3638;DHT22;1835;50.068;8.154;2023-02-19T01:06:38;11.00;99.90
3638;DHT22;1835;50.068;8.154;2023-02-19T01:09:06;11.00;99.90
3638;DHT22;1835;50.068;8.154;2023-02-19T01:11:36;11.00;99.90
3638;DHT22;1835;50.068;8.154;2023-02-19T01:14:04;11.00;99.90
3638;DHT22;1835;50.068;8.154;2023-02-19T01:16:32;11.10;99.90
3638;DHT22;1835;50.068;8.154;2023-02-19T01:19:00;11.00;99.90
3638;DHT22;1835;50.068;8.154;2023-02-19T01:21:30;11.10;99.90
3638;DHT22;1835;50.068;8.154;2023-02-19T01:23:58;11.00;99.90
3638;DHT22;1835;50.068;8.154;2023-02-19T01:26:27;11.00;99.90
3638;DHT22;1835;50.068;8.154;2023-02-19T01:28:58;11.00;99.90
3638;DHT22;1835;50.068;8.154;2023-02-19T01:31:27;11.00;99.90
3638;DHT22;1835;50.068;8.154;2023-02-19T01:33:58;11.10;99.90
3638;DHT22;1835;50.068;8.154;2023-02-19T01:36:27;11.00;99.90
3638;DHT22;1835;50.068;8.154;2023-02-19T01:38:58;11.10;99.90
3638;DHT22;1835;50.068;8.154;2023-02-19T01:41:29;11.10;99.90
3638;DHT22;1835;50.068;8.154;2023-02-19T01:44:01;11.10;99.90
3638;DHT22;1835;50.068;8.154;2023-02-19T01:46:31;11.20;99.90
3638;DHT22;1835;50.068;8.154;2023-02-19T01:49:02;11.20;99.90
3638;DHT22;1835;50.068;8.154;2023-02-19T01:51:33;11.30;99.90
3638;DHT22;1835;50.068;8.154;2023-02-19T01:54:04;11.30;99.90
3638;DHT22;1835;50.068;8.154;2023-02-19T01:56:35;11.20;99.90
3638;DHT22;1835;50.068;8.154;2023-02-19T01:59:07;11.20;99.90
3638;DHT22;1835;50.068;8.154;2023-02-19T02:01:36;11.10;99.90
3638;DHT22;1835;50.068;8.154;2023-02-19T02:04:07;11.10;99.90
3638;DHT22;1835;50.068;8.154;2023-02-19T02:06:44;11.20;99.90
3638;DHT22;1835;50.068;8.154;2023-02-19T02:09:15;11.20;99.90
3638;DHT22;1835;50.068;8.154;2023-02-19T02:12:03;11.10;99.90
3638;DHT22;1835;50.068;8.154;2023-02-19T02:14:34;10.90;99.90
3638;DHT22;1835;50.068;8.154;2023-02-19T02:17:09;10.90;99.90
3638;DHT22;1835;50.068;8.154;2023-02-19T02:20:15;11.00;99.90
3638;DHT22;1835;50.068;8.154;2023-02-19T02:22:58;11.20;99.90
3638;DHT22;1835;50.068;8.154;2023-02-19T02:25:55;11.20;99.90
3638;DHT22;1835;50.068;8.154;2023-02-19T02:28:52;11.30;99.90
3638;DHT22;1835;50.068;8.154;2023-02-19T02:31:34;11.30;99.90
3638;DHT22;1835;50.068;8.154;2023-02-19T02:34:08;11.20;99.90
3638;DHT22;1835;50.068;8.154;2023-02-19T02:36:42;11.10;99.90
3638;DHT22;1835;50.068;8.154;2023-02-19T02:39:14;11.10;99.90
3638;DHT22;1835;50.068;8.154;2023-02-19T02:41:48;10.80;99.90
3638;DHT22;1835;50.068;8.154;2023-02-19T02:44:41;11.00;99.90
3638;DHT22;1835;50.068;8.154;2023-02-19T02:47:35;11.10;99.90
3638;DHT22;1835;50.068;8.154;2023-02-19T02:50:14;11.00;99.90
3638;DHT22;1835;50.068;8.154;2023-02-19T02:52:45;10.90;99.90
3638;DHT22;1835;50.068;8.154;2023-02-19T02:55:36;10.90;99.90
3638;DHT22;1835;50.068;8.154;2023-02-19T02:58:07;10.80;99.90
3638;DHT22;1835;50.068;8.154;2023-02-19T03:00:36;10.70;99.90
3638;DHT22;1835;50.068;8.154;2023-02-19T03:03:26;10.50;99.90
3638;DHT22;1835;50.068;8.154;2023-02-19T03:05:59;10.40;99.90
3638;DHT22;1835;50.068;8.154;2023-02-19T03:08:35;10.40;99.90
3638;DHT22;1835;50.068;8.154;2023-02-19T03:11:08;10.50;99.90
3638;DHT22;1835;50.068;8.154;2023-02-19T03:13:58;10.70;99.90
3638;DHT22;1835;50.068;8.154;2023-02-19T03:16:47;10.60;99.90
3638;DHT22;1835;50.068;8.154;2023-02-19T03:19:53;10.50;99.90
3638;DHT22;1835;50.068;8.154;2023-02-19T03:22:25;10.40;99.90
3638;DHT22;1835;50.068;8.154;2023-02-19T03:25:00;10.50;99.90
3638;DHT22;1835;50.068;8.154;2023-02-19T03:27:50;10.70;99.90
3638;DHT22;1835;50.068;8.154;2023-02-19T03:30:21;10.80;99.90
3638;DHT22;1835;50.068;8.154;2023-02-19T03:32:53;10.90;99.90
3638;DHT22;1835;50.068;8.154;2023-02-19T03:35:25;10.70;99.90
3638;DHT22;1835;50.068;8.154;2023-02-19T03:37:59;10.60;99.90
3638;DHT22;1835;50.068;8.154;2023-02-19T03:40:30;10.60;99.90
3638;DHT22;1835;50.068;8.154;2023-02-19T03:43:12;10.70;99.90
3638;DHT22;1835;50.068;8.154;2023-02-19T03:45:54;10.90;99.90
3638;DHT22;1835;50.068;8.154;2023-02-19T03:48:29;10.90;99.90
3638;DHT22;1835;50.068;8.154;2023-02-19T03:51:25;10.80;99.90
3638;DHT22;1835;50.068;8.154;2023-02-19T03:54:03;10.90;99.90
3638;DHT22;1835;50.068;8.154;2023-02-19T03:56:42;10.80;99.90
3638;DHT22;1835;50.068;8.154;2023-02-19T03:59:17;10.90;99.90
3638;DHT22;1835;50.068;8.154;2023-02-19T04:01:51;10.90;99.90
3638;DHT22;1835;50.068;8.154;2023-02-19T04:04:24;10.90;99.90
3638;DHT22;1835;50.068;8.154;2023-02-19T04:06:56;10.80;99.90
3638;DHT22;1835;50.068;8.154;2023-02-19T04:09:27;10.90;99.90
3638;DHT22;1835;50.068;8.154;2023-02-19T04:11:57;11.00;99.90
3638;DHT22;1835;50.068;8.154;2023-02-19T04:14:29;10.90;99.90
3638;DHT22;1835;50.068;8.154;2023-02-19T04:17:01;10.90;99.90
3638;DHT22;1835;50.068;8.154;2023-02-19T04:19:34;10.80;99.90
3638;DHT22;1835;50.068;8.154;2023-02-19T04:22:06;10.80;99.90
3638;DHT22;1835;50.068;8.154;2023-02-19T04:24:39;10.90;99.90
3638;DHT22;1835;50.068;8.154;2023-02-19T04:27:10;11.00;99.90
3638;DHT22;1835;50.068;8.154;2023-02-19T04:29:38;10.90;99.90
3638;DHT22;1835;50.068;8.154;2023-02-19T04:32:08;10.90;99.90
3638;DHT22;1835;50.068;8.154;2023-02-19T04:34:36;10.90;99.90
3638;DHT22;1835;50.068;8.154;2023-02-19T04:37:06;11.00;99.90
3638;DHT22;1835;50.068;8.154;2023-02-19T04:39:34;10.90;99.90
3638;DHT22;1835;50.068;8.154;2023-02-19T04:42:02;10.60;99.90
3638;DHT22;1835;50.068;8.154;2023-02-19T04:44:32;10.50;99.90
3638;DHT22;1835;50.068;8.154;2023-02-19T04:47:03;10.50;99.90
3638;DHT22;1835;50.068;8.154;2023-02-19T04:49:32;10.40;99.90
3638;DHT22;1835;50.068;8.154;2023-02-19T04:52:00;10.60;99.90
3638;DHT22;1835;50.068;8.154;2023-02-19T04:54:30;10.60;99.90
3638;DHT22;1835;50.068;8.154;2023-02-19T04:56:58;10.60;99.90
3638;DHT22;1835;50.068;8.154;2023-02-19T04:59:27;10.20;99.90
3638;DHT22;1835;50.068;8.154;2023-02-19T05:01:55;10.20;99.90
3638;DHT22;1835;50.068;8.154;2023-02-19T05:04:24;10.20;99.90
3638;DHT22;1835;50.068;8.154;2023-02-19T05:06:52;10.40;99.90
3638;DHT22;1835;50.068;8.154;2023-02-19T05:09:20;10.50;99.90
3638;DHT22;1835;50.068;8.154;2023-02-19T05:11:49;10.50;99.90
3638;DHT22;1835;50.068;8.154;2023-02-19T05:14:17;10.40;99.90
3638;DHT22;1835;50.068;8.154;2023-02-19T05:16:45;10.70;99.90
3638;DHT22;1835;50.068;8.154;2023-02-19T05:19:13;10.60;99.90
3638;DHT22;1835;50.068;8.154;2023-02-19T05:21:41;10.50;99.90
3638;DHT22;1835;50.068;8.154;2023-02-19T05:24:09;10.40;99.90
3638;DHT22;1835;50.068;8.154;2023-02-19T05:26:37;10.30;99.90
3638;DHT22;1835;50.068;8.154;2023-02-19T05:29:07;10.30;99.90
3638;DHT22;1835;50.068;8.154;2023-02-19T05:31:35;10.50;99.90
3638;DHT22;1835;50.068;8.154;2023-02-19T05:34:03;10.40;99.90
3638;DHT22;1835;50.068;8.154;2023-02-19T05:36:31;10.60;99.90
3638;DHT22;1835;50.068;8.154;2023-02-19T05:38:59;10.50;99.90
3638;DHT22;1835;50.068;8.154;2023-02-19T05:41:30;10.50;99.90
3638;DHT22;1835;50.068;8.154;2023-02-19T05:43:58;10.50;99.90
3638;DHT22;1835;50.068;8.154;2023-02-19T05:46:28;10.30;99.90
3638;DHT22;1835;50.068;8.154;2023-02-19T05:48:57;10.50;99.90
3638;DHT22;1835;50.068;8.154;2023-02-19T05:51:25;10.60;99.90
3638;DHT22;1835;50.068;8.154;2023-02-19T05:53:55;10.60;99.90
3638;DHT22;1835;50.068;8.154;2023-02-19T05:56:29;10.70;99.90
3638;DHT22;1835;50.068;8.154;2023-02-19T05:58:59;10.80;99.90
3638;DHT22;1835;50.068;8.154;2023-02-19T06:01:30;10.80;99.90
3638;DHT22;1835;50.068;8.154;2023-02-19T06:03:59;10.70;99.90
3638;DHT22;1835;50.068;8.154;2023-02-19T06:06:27;10.70;99.90
3638;DHT22;1835;50.068;8.154;2023-02-19T06:08:56;10.70;99.90
3638;DHT22;1835;50.068;8.154;2023-02-19T06:11:24;10.60;99.90
3638;DHT22;1835;50.068;8.154;2023-02-19T06:13:52;10.60;99.90
3638;DHT22;1835;50.068;8.154;2023-02-19T06:16:20;10.60;99.90
3638;DHT22;1835;50.068;8.154;2023-02-19T06:18:51;10.70;99.90
3638;DHT22;1835;50.068;8.154;2023-02-19T06:21:19;10.80;99.90
3638;DHT22;1835;50.068;8.154;2023-02-19T06:23:48;10.60;99.90
3638;DHT22;1835;50.068;8.154;2023-02-19T06:26:17;10.60;99.90
3638;DHT22;1835;50.068;8.154;2023-02-19T06:28:48;10.80;99.90
3638;DHT22;1835;50.068;8.154;2023-02-19T06:31:18;10.60;99.90
3638;DHT22;1835;50.068;8.154;2023-02-19T06:33:47;10.40;99.90
3638;DHT22;1835;50.068;8.154;2023-02-19T06:36:19;10.40;99.90
3638;DHT22;1835;50.068;8.154;2023-02-19T06:38:48;10.40;99.90
3638;DHT22;1835;50.068;8.154;2023-02-19T06:41:16;10.40;99.90
3638;DHT22;1835;50.068;8.154;2023-02-19T06:43:45;10.40;99.90
3638;DHT22;1835;50.068;8.154;2023-02-19T06:46:13;10.60;99.90
3638;DHT22;1835;50.068;8.154;2023-02-19T06:48:43;10.70;99.90
3638;DHT22;1835;50.068;8.154;2023-02-19T06:51:13;10.70;99.90
3638;DHT22;1835;50.068;8.154;2023-02-19T06:53:47;10.60;99.90
3638;DHT22;1835;50.068;8.154;2023-02-19T06:56:26;10.60;99.90
3638;DHT22;1835;50.068;8.154;2023-02-19T06:59:02;10.60;99.90
3638;DHT22;1835;50.068;8.154;2023-02-19T07:01:33;10.60;99.90
3638;DHT22;1835;50.068;8.154;2023-02-19T07:04:02;10.50;99.90
3638;DHT22;1835;50.068;8.154;2023-02-19T07:06:32;10.40;99.90
3638;DHT22;1835;50.068;8.154;2023-02-19T07:09:03;10.30;99.90
3638;DHT22;1835;50.068;8.154;2023-02-19T07:11:34;10.70;99.90
3638;DHT22;1835;50.068;8.154;2023-02-19T07:14:07;10.50;99.90
3638;DHT22;1835;50.068;8.154;2023-02-19T07:16:36;10.70;99.90
3638;DHT22;1835;50.068;8.154;2023-02-19T07:19:05;10.80;99.90
3638;DHT22;1835;50.068;8.154;2023-02-19T07:21:33;10.90;99.90
3638;DHT22;1835;50.068;8.154;2023-02-19T07:24:05;10.70;99.90
3638;DHT22;1835;50.068;8.154;2023-02-19T07:26:33;10.80;99.90
3638;DHT22;1835;50.068;8.154;2023-02-19T07:29:02;10.90;99.90
3638;DHT22;1835;50.068;8.154;2023-02-19T07:31:30;10.90;99.90
3638;DHT22;1835;50.068;8.154;2023-02-19T07:33:58;11.10;99.90
3638;DHT22;1835;50.068;8.154;2023-02-19T07:36:26;11.10;99.90
3638;DHT22;1835;50.068;8.154;2023-02-19T07:38:55;10.90;99.90
3638;DHT22;1835;50.068;8.154;2023-02-19T07:41:25;11.10;99.90
3638;DHT22;1835;50.068;8.154;2023-02-19T07:43:54;11.10;99.90
3638;DHT22;1835;50.068;8.154;2023-02-19T07:46:22;11.10;99.90
3638;DHT22;1835;50.068;8.154;2023-02-19T07:48:51;11.00;99.90
3638;DHT22;1835;50.068;8.154;2023-02-19T07:51:20;10.90;99.90
3638;DHT22;1835;50.068;8.154;2023-02-19T07:53:48;11.10;99.90
3638;DHT22;1835;50.068;8.154;2023-02-19T07:56:17;11.30;99.90
3638;DHT22;1835;50.068;8.154;2023-02-19T07:58:47;11.40;99.90
3638;DHT22;1835;50.068;8.154;2023-02-19T08:01:17;11.40;99.90
3638;DHT22;1835;50.068;8.154;2023-02-19T08:04:06;11.30;99.90
3638;DHT22;1835;50.068;8.154;2023-02-19T08:06:34;11.20;99.90
3638;DHT22;1835;50.068;8.154;2023-02-19T08:09:03;11.10;99.90
3638;DHT22;1835;50.068;8.154;2023-02-19T08:11:32;11.00;99.90
3638;DHT22;1835;50.068;8.154;2023-02-19T08:14:34;10.90;99.90
3638;DHT22;1835;50.068;8.154;2023-02-19T08:17:03;11.10;99.90
3638;DHT22;1835;50.068;8.154;2023-02-19T08:19:32;11.00;99.90
3638;DHT22;1835;50.068;8.154;2023-02-19T08:22:00;11.00;99.90
3638;DHT22;1835;50.068;8.154;2023-02-19T08:24:28;11.10;99.90
3638;DHT22;1835;50.068;8.154;2023-02-19T08:26:56;11.30;99.90
3638;DHT22;1835;50.068;8.154;2023-02-19T08:29:24;11.60;99.90
3638;DHT22;1835;50.068;8.154;2023-02-19T08:31:54;11.80;99.90
3638;DHT22;1835;50.068;8.154;2023-02-19T08:34:22;11.70;99.90
3638;DHT22;1835;50.068;8.154;2023-02-19T08:36:50;11.80;99.90
3638;DHT22;1835;50.068;8.154;2023-02-19T08:39:18;11.90;99.90
3638;DHT22;1835;50.068;8.154;2023-02-19T08:41:46;11.80;99.90
3638;DHT22;1835;50.068;8.154;2023-02-19T08:44:15;12.00;99.90
3638;DHT22;1835;50.068;8.154;2023-02-19T08:46:43;12.00;99.90
3638;DHT22;1835;50.068;8.154;2023-02-19T08:49:12;11.80;99.90
3638;DHT22;1835;50.068;8.154;2023-02-19T08:51:42;11.50;99.90
3638;DHT22;1835;50.068;8.154;2023-02-19T08:54:09;11.50;99.90
3638;DHT22;1835;50.068;8.154;2023-02-19T08:56:37;11.50;99.90
3638;DHT22;1835;50.068;8.154;2023-02-19T08:59:06;11.40;99.90
3638;DHT22;1835;50.068;8.154;2023-02-19T09:01:34;11.40;99.90
3638;DHT22;1835;50.068;8.154;2023-02-19T09:04:02;11.60;99.90
3638;DHT22;1835;50.068;8.154;2023-02-19T09:06:31;11.80;99.90
3638;DHT22;1835;50.068;8.154;2023-02-19T09:08:59;11.80;99.90
3638;DHT22;1835;50.068;8.154;2023-02-19T09:11:27;11.80;99.90
3638;DHT22;1835;50.068;8.154;2023-02-19T09:13:56;11.80;99.90
3638;DHT22;1835;50.068;8.154;2023-02-19T09:16:24;11.70;99.90
3638;DHT22;1835;50.068;8.154;2023-02-19T09:18:52;11.70;99.90
3638;DHT22;1835;50.068;8.154;2023-02-19T09:21:20;11.70;99.90
3638;DHT22;1835;50.068;8.154;2023-02-19T09:23:50;11.80;99.90
3638;DHT22;1835;50.068;8.154;2023-02-19T09:26:18;11.70;99.90
3638;DHT22;1835;50.068;8.154;2023-02-19T09:28:46;11.80;99.90
3638;DHT22;1835;50.068;8.154;2023-02-19T09:31:14;11.80;99.90
3638;DHT22;1835;50.068;8.154;2023-02-19T09:33:44;12.00;99.90
3638;DHT22;1835;50.068;8.154;2023-02-19T09:36:14;12.20;99.90
3638;DHT22;1835;50.068;8.154;2023-02-19T09:38:44;12.40;99.90
3638;DHT22;1835;50.068;8.154;2023-02-19T09:41:18;12.40;99.90
3638;DHT22;1835;50.068;8.154;2023-02-19T09:43:50;12.10;99.90
3638;DHT22;1835;50.068;8.154;2023-02-19T09:46:26;12.00;99.90
3638;DHT22;1835;50.068;8.154;2023-02-19T09:49:02;12.10;99.90
3638;DHT22;1835;50.068;8.154;2023-02-19T09:51:33;12.30;99.90
3638;DHT22;1835;50.068;8.154;2023-02-19T09:54:04;12.10;99.90
3638;DHT22;1835;50.068;8.154;2023-02-19T09:56:35;12.00;99.90
3638;DHT22;1835;50.068;8.154;2023-02-19T09:59:05;12.10;99.90
3638;DHT22;1835;50.068;8.154;2023-02-19T10:01:36;11.90;99.90
3638;DHT22;1835;50.068;8.154;2023-02-19T10:04:08;11.60;99.90
3638;DHT22;1835;50.068;8.154;2023-02-19T10:06:39;11.70;99.90
3638;DHT22;1835;50.068;8.154;2023-02-19T10:09:17;11.80;99.90
3638;DHT22;1835;50.068;8.154;2023-02-19T10:11:51;11.50;99.90
3638;DHT22;1835;50.068;8.154;2023-02-19T10:14:24;11.30;99.90
3638;DHT22;1835;50.068;8.154;2023-02-19T10:17:01;11.50;99.90
3638;DHT22;1835;50.068;8.154;2023-02-19T10:19:31;11.40;99.90
3638;DHT22;1835;50.068;8.154;2023-02-19T10:22:02;11.40;99.90
3638;DHT22;1835;50.068;8.154;2023-02-19T10:24:31;11.50;99.90
3638;DHT22;1835;50.068;8.154;2023-02-19T10:27:07;11.60;99.90
3638;DHT22;1835;50.068;8.154;2023-02-19T10:29:38;11.70;99.90
3638;DHT22;1835;50.068;8.154;2023-02-19T10:32:14;11.60;99.90
3638;DHT22;1835;50.068;8.154;2023-02-19T10:34:46;11.80;99.90
3638;DHT22;1835;50.068;8.154;2023-02-19T10:37:16;11.90;99.90
3638;DHT22;1835;50.068;8.154;2023-02-19T10:39:46;12.00;99.90
3638;DHT22;1835;50.068;8.154;2023-02-19T10:42:19;12.10;99.90
3638;DHT22;1835;50.068;8.154;2023-02-19T10:44:51;11.90;99.90
3638;DHT22;1835;50.068;8.154;2023-02-19T10:47:27;12.00;99.90
3638;DHT22;1835;50.068;8.154;2023-02-19T10:49:59;11.90;99.90
3638;DHT22;1835;50.068;8.154;2023-02-19T10:52:31;11.80;99.90
3638;DHT22;1835;50.068;8.154;2023-02-19T10:55:14;11.90;99.90
3638;DHT22;1835;50.068;8.154;2023-02-19T10:57:48;12.40;99.90
3638;DHT22;1835;50.068;8.154;2023-02-19T11:00:21;12.40;99.90
3638;DHT22;1835;50.068;8.154;2023-02-19T11:03:16;12.70;99.90
3638;DHT22;1835;50.068;8.154;2023-02-19T11:05:50;13.30;99.90
3638;DHT22;1835;50.068;8.154;2023-02-19T11:08:23;13.70;99.90
3638;DHT22;1835;50.068;8.154;2023-02-19T11:10:51;13.50;99.90
3638;DHT22;1835;50.068;8.154;2023-02-19T11:13:27;13.40;99.90
3638;DHT22;1835;50.068;8.154;2023-02-19T11:16:01;13.20;99.90
3638;DHT22;1835;50.068;8.154;2023-02-19T11:18:33;13.10;99.90
3638;DHT22;1835;50.068;8.154;2023-02-19T11:21:06;13.00;99.90
3638;DHT22;1835;50.068;8.154;2023-02-19T11:23:44;13.20;99.90
3638;DHT22;1835;50.068;8.154;2023-02-19T11:26:17;13.10;99.90
3638;DHT22;1835;50.068;8.154;2023-02-19T11:28:54;12.90;99.90
3638;DHT22;1835;50.068;8.154;2023-02-19T11:31:25;13.00;99.90
3638;DHT22;1835;50.068;8.154;2023-02-19T11:33:56;13.00;99.90
3638;DHT22;1835;50.068;8.154;2023-02-19T11:36:31;12.90;99.90
3638;DHT22;1835;50.068;8.154;2023-02-19T11:39:20;12.50;99.90
3638;DHT22;1835;50.068;8.154;2023-02-19T11:42:23;12.50;99.90
3638;DHT22;1835;50.068;8.154;2023-02-19T11:45:12;12.60;99.90
3638;DHT22;1835;50.068;8.154;2023-02-19T11:48:10;12.60;99.90
3638;DHT22;1835;50.068;8.154;2023-02-19T11:50:59;12.50;99.90
3638;DHT22;1835;50.068;8.154;2023-02-19T11:53:45;12.50;99.90
3638;DHT22;1835;50.068;8.154;2023-02-19T11:56:17;12.70;99.90
3638;DHT22;1835;50.068;8.154;2023-02-19T11:58:58;12.60;99.90
3638;DHT22;1835;50.068;8.154;2023-02-19T12:11:25;12.00;99.90
3638;DHT22;1835;50.068;8.154;2023-02-19T12:14:21;12.20;99.90
3638;DHT22;1835;50.068;8.154;2023-02-19T12:17:14;12.60;99.90
3638;DHT22;1835;50.068;8.154;2023-02-19T12:19:59;12.70;99.90
3638;DHT22;1835;50.068;8.154;2023-02-19T12:22:45;12.70;99.90
3638;DHT22;1835;50.068;8.154;2023-02-19T12:25:45;12.60;99.90
3638;DHT22;1835;50.068;8.154;2023-02-19T12:28:32;12.50;99.90
3638;DHT22;1835;50.068;8.154;2023-02-19T12:31:54;12.60;99.90
3638;DHT22;1835;50.068;8.154;2023-02-19T12:35:17;12.70;99.90
3638;DHT22;1835;50.068;8.154;2023-02-19T12:38:01;12.80;99.90
3638;DHT22;1835;50.068;8.154;2023-02-19T12:40:45;12.90;99.90
3638;DHT22;1835;50.068;8.154;2023-02-19T12:43:21;12.70;99.90
3638;DHT22;1835;50.068;8.154;2023-02-19T12:45:54;12.40;99.90
3638;DHT22;1835;50.068;8.154;2023-02-19T12:48:29;12.30;99.90
3638;DHT22;1835;50.068;8.154;2023-02-19T12:51:04;12.40;99.90
3638;DHT22;1835;50.068;8.154;2023-02-19T12:53:40;12.50;99.90
3638;DHT22;1835;50.068;8.154;2023-02-19T12:56:15;12.60;99.90
3638;DHT22;1835;50.068;8.154;2023-02-19T12:58:48;12.80;99.90
3638;DHT22;1835;50.068;8.154;2023-02-19T13:01:22;13.20;99.90
3638;DHT22;1835;50.068;8.154;2023-02-19T13:04:06;13.10;99.90
3638;DHT22;1835;50.068;8.154;2023-02-19T13:06:44;13.10;99.90
3638;DHT22;1835;50.068;8.154;2023-02-19T13:09:19;13.50;99.90
3638;DHT22;1835;50.068;8.154;2023-02-19T13:11:52;13.80;99.90
3638;DHT22;1835;50.068;8.154;2023-02-19T13:14:26;14.10;99.90
3638;DHT22;1835;50.068;8.154;2023-02-19T13:16:59;14.20;99.90
3638;DHT22;1835;50.068;8.154;2023-02-19T13:19:31;14.30;99.90
3638;DHT22;1835;50.068;8.154;2023-02-19T13:22:07;14.20;99.90
3638;DHT22;1835;50.068;8.154;2023-02-19T13:25:00;13.70;99.90
3638;DHT22;1835;50.068;8.154;2023-02-19T13:30:52;13.40;99.90
3638;DHT22;1835;50.068;8.154;2023-02-19T13:33:38;13.60;99.90
3638;DHT22;1835;50.068;8.154;2023-02-19T13:36:15;13.30;99.90
3638;DHT22;1835;50.068;8.154;2023-02-19T13:38:47;13.20;99.90
3638;DHT22;1835;50.068;8.154;2023-02-19T13:41:26;13.30;99.90
3638;DHT22;1835;50.068;8.154;2023-02-19T13:43:58;13.30;99.90
3638;DHT22;1835;50.068;8.154;2023-02-19T13:46:37;13.20;99.90
3638;DHT22;1835;50.068;8.154;2023-02-19T13:49:39;12.50;99.90
3638;DHT22;1835;50.068;8.154;2023-02-19T13:52:33;12.60;99.90
3638;DHT22;1835;50.068;8.154;2023-02-19T13:55:46;12.70;99.90
3638;DHT22;1835;50.068;8.154;2023-02-19T14:04:55;12.70;99.90
3638;DHT22;1835;50.068;8.154;2023-02-19T14:10:55;12.70;99.90
3638;DHT22;1835;50.068;8.154;2023-02-19T14:13:59;12.10;99.90
3638;DHT22;1835;50.068;8.154;2023-02-19T14:16:56;11.90;99.90
3638;DHT22;1835;50.068;8.154;2023-02-19T14:23:07;11.40;99.90
3638;DHT22;1835;50.068;8.154;2023-02-19T14:25:51;11.50;99.90
3638;DHT22;1835;50.068;8.154;2023-02-19T14:28:26;11.40;99.90
3638;DHT22;1835;50.068;8.154;2023-02-19T14:30:58;11.30;99.90
3638;DHT22;1835;50.068;8.154;2023-02-19T14:33:29;11.40;99.90
3638;DHT22;1835;50.068;8.154;2023-02-19T14:36:08;11.30;99.90
3638;DHT22;1835;50.068;8.154;2023-02-19T14:38:49;11.40;99.90
3638;DHT22;1835;50.068;8.154;2023-02-19T14:41:20;11.30;99.90
3638;DHT22;1835;50.068;8.154;2023-02-19T14:43:51;11.50;99.90
3638;DHT22;1835;50.068;8.154;2023-02-19T14:46:26;11.40;99.90
3638;DHT22;1835;50.068;8.154;2023-02-19T14:48:59;11.50;99.90
3638;DHT22;1835;50.068;8.154;2023-02-19T14:51:33;11.50;99.90
3638;DHT22;1835;50.068;8.154;2023-02-19T14:54:11;11.50;99.90
3638;DHT22;1835;50.068;8.154;2023-02-19T14:56:42;11.60;99.90
3638;DHT22;1835;50.068;8.154;2023-02-19T14:59:30;11.60;99.90
3638;DHT22;1835;50.068;8.154;2023-02-19T15:02:00;11.70;99.90
3638;DHT22;1835;50.068;8.154;2023-02-19T15:04:34;11.60;99.90
3638;DHT22;1835;50.068;8.154;2023-02-19T15:07:07;11.50;99.90
3638;DHT22;1835;50.068;8.154;2023-02-19T15:09:40;11.60;99.90
3638;DHT22;1835;50.068;8.154;2023-02-19T15:12:15;11.80;99.90
3638;DHT22;1835;50.068;8.154;2023-02-19T15:14:44;11.90;99.90
3638;DHT22;1835;50.068;8.154;2023-02-19T15:17:16;12.00;99.90
3638;DHT22;1835;50.068;8.154;2023-02-19T15:19:49;11.80;99.90
3638;DHT22;1835;50.068;8.154;2023-02-19T15:22:20;12.00;99.90
3638;DHT22;1835;50.068;8.154;2023-02-19T15:24:50;11.90;99.90
3638;DHT22;1835;50.068;8.154;2023-02-19T15:27:20;11.90;99.90
3638;DHT22;1835;50.068;8.154;2023-02-19T15:29:51;11.90;99.90
3638;DHT22;1835;50.068;8.154;2023-02-19T15:32:22;12.00;99.90
3638;DHT22;1835;50.068;8.154;2023-02-19T15:34:55;12.20;99.90
3638;DHT22;1835;50.068;8.154;2023-02-19T15:37:26;12.30;99.90
3638;DHT22;1835;50.068;8.154;2023-02-19T15:39:59;12.20;99.90
3638;DHT22;1835;50.068;8.154;2023-02-19T15:42:31;12.00;99.90
3638;DHT22;1835;50.068;8.154;2023-02-19T15:45:05;12.00;99.90
3638;DHT22;1835;50.068;8.154;2023-02-19T15:47:42;11.80;99.90
3638;DHT22;1835;50.068;8.154;2023-02-19T15:50:14;11.80;99.90
3638;DHT22;1835;50.068;8.154;2023-02-19T15:52:47;11.70;99.90
3638;DHT22;1835;50.068;8.154;2023-02-19T15:55:25;11.60;99.90
3638;DHT22;1835;50.068;8.154;2023-02-19T15:57:59;11.70;99.90
3638;DHT22;1835;50.068;8.154;2023-02-19T16:00:34;11.50;99.90
3638;DHT22;1835;50.068;8.154;2023-02-19T16:03:07;11.40;99.90
3638;DHT22;1835;50.068;8.154;2023-02-19T16:05:40;11.40;99.90
3638;DHT22;1835;50.068;8.154;2023-02-19T16:08:17;11.30;99.90
3638;DHT22;1835;50.068;8.154;2023-02-19T16:10:56;11.00;99.90
3638;DHT22;1835;50.068;8.154;2023-02-19T16:13:27;10.70;99.90
3638;DHT22;1835;50.068;8.154;2023-02-19T16:15:59;10.60;99.90
3638;DHT22;1835;50.068;8.154;2023-02-19T16:18:31;10.60;99.90
3638;DHT22;1835;50.068;8.154;2023-02-19T16:21:00;10.50;99.90
3638;DHT22;1835;50.068;8.154;2023-02-19T16:23:30;10.50;99.90
3638;DHT22;1835;50.068;8.154;2023-02-19T16:26:01;10.40;99.90
3638;DHT22;1835;50.068;8.154;2023-02-19T16:28:36;10.40;99.90
3638;DHT22;1835;50.068;8.154;2023-02-19T16:31:07;10.30;99.90
3638;DHT22;1835;50.068;8.154;2023-02-19T16:33:39;10.30;99.90
3638;DHT22;1835;50.068;8.154;2023-02-19T16:36:20;10.30;99.90
3638;DHT22;1835;50.068;8.154;2023-02-19T16:39:20;10.30;99.90
3638;DHT22;1835;50.068;8.154;2023-02-19T16:42:18;10.30;99.90
3638;DHT22;1835;50.068;8.154;2023-02-19T16:44:46;10.20;99.90
3638;DHT22;1835;50.068;8.154;2023-02-19T16:47:32;10.40;99.90
3638;DHT22;1835;50.068;8.154;2023-02-19T16:50:06;10.60;99.90
3638;DHT22;1835;50.068;8.154;2023-02-19T16:52:50;10.60;99.90
3638;DHT22;1835;50.068;8.154;2023-02-19T16:55:18;10.50;99.90
3638;DHT22;1835;50.068;8.154;2023-02-19T16:57:48;10.40;99.90
3638;DHT22;1835;50.068;8.154;2023-02-19T17:00:18;10.60;99.90
3638;DHT22;1835;50.068;8.154;2023-02-19T17:02:47;10.40;99.90
3638;DHT22;1835;50.068;8.154;2023-02-19T17:05:17;10.50;99.90
3638;DHT22;1835;50.068;8.154;2023-02-19T17:07:48;10.50;99.90
3638;DHT22;1835;50.068;8.154;2023-02-19T17:10:18;10.50;99.90
3638;DHT22;1835;50.068;8.154;2023-02-19T17:12:50;10.60;99.90